sensor_id;sensor_type;location;lat;lon;timestamp;P1;durP1;ratioP1;P2;durP2;ratioP2
73747;SDS011;62056;52.130;5.428;2022-12-05T00:00:57;30.27;;;14.32;;
73747;SDS011;62056;52.130;5.428;2022-12-05T00:03:25;24.15;;;13.07;;
73747;SDS011;62056;52.130;5.428;2022-12-05T00:05:52;27.10;;;12.93;;
73747;SDS011;62056;52.130;5.428;2022-12-05T00:08:20;31.20;;;15.43;;
73747;SDS011;62056;52.130;5.428;2022-12-05T00:10:46;27.07;;;13.73;;
73747;SDS011;62056;52.130;5.428;2022-12-05T00:13:13;27.85;;;12.63;;
73747;SDS011;62056;52.130;5.428;2022-12-05T00:15:39;28.25;;;13.57;;
73747;SDS011;62056;52.130;5.428;2022-12-05T00:18:06;30.15;;;13.18;;
73747;SDS011;62056;52.130;5.428;2022-12-05T00:20:33;23.60;;;12.35;;
73747;SDS011;62056;52.130;5.428;2022-12-05T00:23:00;28.37;;;13.10;;
73747;SDS011;62056;52.130;5.428;2022-12-05T00:25:27;26.92;;;13.18;;
73747;SDS011;62056;52.130;5.428;2022-12-05T00:27:56;27.15;;;13.38;;
73747;SDS011;62056;52.130;5.428;2022-12-05T00:30:23;30.23;;;14.15;;
73747;SDS011;62056;52.130;5.428;2022-12-05T00:32:50;28.17;;;14.30;;
73747;SDS011;62056;52.130;5.428;2022-12-05T00:35:16;30.50;;;12.60;;
73747;SDS011;62056;52.130;5.428;2022-12-05T00:37:44;28.90;;;13.52;;
73747;SDS011;62056;52.130;5.428;2022-12-05T00:40:11;30.15;;;12.80;;
73747;SDS011;62056;52.130;5.428;2022-12-05T00:42:37;27.70;;;13.13;;
73747;SDS011;62056;52.130;5.428;2022-12-05T00:45:04;26.65;;;13.18;;
73747;SDS011;62056;52.130;5.428;2022-12-05T00:47:33;31.03;;;13.27;;
73747;SDS011;62056;52.130;5.428;2022-12-05T00:50:01;28.88;;;13.45;;
73747;SDS011;62056;52.130;5.428;2022-12-05T00:52:29;31.70;;;14.30;;
73747;SDS011;62056;52.130;5.428;2022-12-05T00:54:59;36.35;;;13.95;;
73747;SDS011;62056;52.130;5.428;2022-12-05T00:57:25;29.90;;;12.73;;
73747;SDS011;62056;52.130;5.428;2022-12-05T00:59:52;37.17;;;15.80;;
73747;SDS011;62056;52.130;5.428;2022-12-05T01:02:19;25.77;;;11.98;;
73747;SDS011;62056;52.130;5.428;2022-12-05T01:04:46;25.55;;;13.45;;
73747;SDS011;62056;52.130;5.428;2022-12-05T01:07:13;31.90;;;15.10;;
73747;SDS011;62056;52.130;5.428;2022-12-05T01:09:39;27.30;;;13.35;;
73747;SDS011;62056;52.130;5.428;2022-12-05T01:12:06;33.97;;;15.13;;
73747;SDS011;62056;52.130;5.428;2022-12-05T01:14:33;28.55;;;12.55;;
73747;SDS011;62056;52.130;5.428;2022-12-05T01:17:00;29.20;;;13.35;;
73747;SDS011;62056;52.130;5.428;2022-12-05T01:19:28;34.70;;;15.93;;
73747;SDS011;62056;52.130;5.428;2022-12-05T01:21:56;29.05;;;13.98;;
73747;SDS011;62056;52.130;5.428;2022-12-05T01:24:22;32.07;;;13.93;;
73747;SDS011;62056;52.130;5.428;2022-12-05T01:26:50;28.45;;;13.60;;
73747;SDS011;62056;52.130;5.428;2022-12-05T01:29:18;34.08;;;14.65;;
73747;SDS011;62056;52.130;5.428;2022-12-05T01:31:46;28.95;;;13.80;;
73747;SDS011;62056;52.130;5.428;2022-12-05T01:34:14;31.77;;;13.20;;
73747;SDS011;62056;52.130;5.428;2022-12-05T01:36:42;36.17;;;14.17;;
73747;SDS011;62056;52.130;5.428;2022-12-05T01:39:09;29.63;;;15.15;;
73747;SDS011;62056;52.130;5.428;2022-12-05T01:41:38;30.75;;;14.73;;
73747;SDS011;62056;52.130;5.428;2022-12-05T01:44:58;27.00;;;13.32;;
73747;SDS011;62056;52.130;5.428;2022-12-05T01:46:54;26.98;;;12.90;;
73747;SDS011;62056;52.130;5.428;2022-12-05T01:49:26;33.97;;;15.80;;
73747;SDS011;62056;52.130;5.428;2022-12-05T01:52:01;30.98;;;13.13;;
73747;SDS011;62056;52.130;5.428;2022-12-05T01:54:33;35.75;;;15.02;;
73747;SDS011;62056;52.130;5.428;2022-12-05T01:57:03;33.13;;;14.82;;
73747;SDS011;62056;52.130;5.428;2022-12-05T01:59:34;30.67;;;14.60;;
73747;SDS011;62056;52.130;5.428;2022-12-05T02:02:03;18.80;;;9.97;;
73747;SDS011;62056;52.130;5.428;2022-12-05T02:04:30;26.88;;;13.27;;
73747;SDS011;62056;52.130;5.428;2022-12-05T02:07:00;28.02;;;12.73;;
73747;SDS011;62056;52.130;5.428;2022-12-05T02:09:27;29.67;;;12.63;;
73747;SDS011;62056;52.130;5.428;2022-12-05T02:11:57;24.42;;;11.48;;
73747;SDS011;62056;52.130;5.428;2022-12-05T02:14:30;29.77;;;13.97;;
73747;SDS011;62056;52.130;5.428;2022-12-05T02:17:18;26.23;;;12.75;;
73747;SDS011;62056;52.130;5.428;2022-12-05T02:33:48;28.38;;;13.45;;
73747;SDS011;62056;52.130;5.428;2022-12-05T02:38:59;23.13;;;11.70;;
73747;SDS011;62056;52.130;5.428;2022-12-05T02:41:35;23.80;;;11.47;;
73747;SDS011;62056;52.130;5.428;2022-12-05T02:44:10;23.17;;;11.45;;
73747;SDS011;62056;52.130;5.428;2022-12-05T02:46:44;28.63;;;13.73;;
73747;SDS011;62056;52.130;5.428;2022-12-05T02:49:15;28.40;;;12.73;;
73747;SDS011;62056;52.130;5.428;2022-12-05T02:51:48;28.95;;;14.27;;
73747;SDS011;62056;52.130;5.428;2022-12-05T02:54:24;29.67;;;13.40;;
73747;SDS011;62056;52.130;5.428;2022-12-05T02:56:53;29.25;;;13.32;;
73747;SDS011;62056;52.130;5.428;2022-12-05T02:59:23;24.23;;;11.80;;
73747;SDS011;62056;52.130;5.428;2022-12-05T03:01:50;23.40;;;12.27;;
73747;SDS011;62056;52.130;5.428;2022-12-05T03:04:18;27.95;;;12.93;;
73747;SDS011;62056;52.130;5.428;2022-12-05T03:06:48;21.13;;;10.30;;
73747;SDS011;62056;52.130;5.428;2022-12-05T03:09:22;19.65;;;11.20;;
73747;SDS011;62056;52.130;5.428;2022-12-05T03:11:59;27.05;;;12.48;;
73747;SDS011;62056;52.130;5.428;2022-12-05T03:14:37;23.83;;;12.48;;
73747;SDS011;62056;52.130;5.428;2022-12-05T03:17:09;23.35;;;12.77;;
73747;SDS011;62056;52.130;5.428;2022-12-05T03:22:21;27.20;;;11.85;;
73747;SDS011;62056;52.130;5.428;2022-12-05T03:24:49;23.40;;;12.88;;
73747;SDS011;62056;52.130;5.428;2022-12-05T03:30:06;22.38;;;11.13;;
73747;SDS011;62056;52.130;5.428;2022-12-05T03:32:36;20.80;;;11.60;;
73747;SDS011;62056;52.130;5.428;2022-12-05T03:38:13;22.00;;;10.90;;
73747;SDS011;62056;52.130;5.428;2022-12-05T03:40:48;22.70;;;11.32;;
73747;SDS011;62056;52.130;5.428;2022-12-05T03:43:24;21.60;;;11.10;;
73747;SDS011;62056;52.130;5.428;2022-12-05T03:46:04;21.60;;;10.43;;
73747;SDS011;62056;52.130;5.428;2022-12-05T03:51:16;21.85;;;10.57;;
73747;SDS011;62056;52.130;5.428;2022-12-05T03:53:48;20.90;;;10.70;;
73747;SDS011;62056;52.130;5.428;2022-12-05T03:56:23;21.95;;;12.20;;
73747;SDS011;62056;52.130;5.428;2022-12-05T03:58:58;25.07;;;12.07;;
73747;SDS011;62056;52.130;5.428;2022-12-05T04:01:31;22.23;;;11.15;;
73747;SDS011;62056;52.130;5.428;2022-12-05T04:04:02;20.88;;;8.70;;
73747;SDS011;62056;52.130;5.428;2022-12-05T04:06:36;20.63;;;10.18;;
73747;SDS011;62056;52.130;5.428;2022-12-05T04:09:07;19.05;;;9.13;;
73747;SDS011;62056;52.130;5.428;2022-12-05T04:11:44;22.30;;;11.50;;
73747;SDS011;62056;52.130;5.428;2022-12-05T04:14:17;21.27;;;10.40;;
73747;SDS011;62056;52.130;5.428;2022-12-05T04:22:31;22.02;;;11.13;;
73747;SDS011;62056;52.130;5.428;2022-12-05T04:24:59;22.60;;;10.40;;
73747;SDS011;62056;52.130;5.428;2022-12-05T04:33:33;26.10;;;12.18;;
73747;SDS011;62056;52.130;5.428;2022-12-05T04:38:38;28.33;;;11.67;;
73747;SDS011;62056;52.130;5.428;2022-12-05T04:41:16;24.67;;;11.65;;
73747;SDS011;62056;52.130;5.428;2022-12-05T04:43:48;24.02;;;11.13;;
73747;SDS011;62056;52.130;5.428;2022-12-05T04:46:17;23.80;;;12.35;;
73747;SDS011;62056;52.130;5.428;2022-12-05T04:48:50;19.60;;;11.35;;
73747;SDS011;62056;52.130;5.428;2022-12-05T04:51:22;23.77;;;12.07;;
73747;SDS011;62056;52.130;5.428;2022-12-05T04:53:59;19.60;;;10.93;;
73747;SDS011;62056;52.130;5.428;2022-12-05T04:56:30;25.63;;;11.98;;
73747;SDS011;62056;52.130;5.428;2022-12-05T04:59:00;24.38;;;11.65;;
73747;SDS011;62056;52.130;5.428;2022-12-05T05:01:34;23.05;;;11.02;;
73747;SDS011;62056;52.130;5.428;2022-12-05T05:04:11;27.00;;;10.37;;
73747;SDS011;62056;52.130;5.428;2022-12-05T05:06:44;23.15;;;11.57;;
73747;SDS011;62056;52.130;5.428;2022-12-05T05:09:11;26.48;;;12.93;;
73747;SDS011;62056;52.130;5.428;2022-12-05T05:11:37;22.38;;;12.82;;
73747;SDS011;62056;52.130;5.428;2022-12-05T05:14:04;20.52;;;11.52;;
73747;SDS011;62056;52.130;5.428;2022-12-05T05:16:32;17.40;;;10.13;;
73747;SDS011;62056;52.130;5.428;2022-12-05T05:19:00;22.55;;;12.32;;
73747;SDS011;62056;52.130;5.428;2022-12-05T05:21:31;21.35;;;11.90;;
73747;SDS011;62056;52.130;5.428;2022-12-05T05:24:00;22.15;;;12.05;;
73747;SDS011;62056;52.130;5.428;2022-12-05T05:26:27;21.15;;;11.63;;
73747;SDS011;62056;52.130;5.428;2022-12-05T05:28:56;22.73;;;11.90;;
73747;SDS011;62056;52.130;5.428;2022-12-05T05:31:23;21.98;;;11.90;;
73747;SDS011;62056;52.130;5.428;2022-12-05T05:33:51;20.98;;;10.90;;
73747;SDS011;62056;52.130;5.428;2022-12-05T05:36:20;21.58;;;12.38;;
73747;SDS011;62056;52.130;5.428;2022-12-05T05:38:49;21.75;;;11.50;;
73747;SDS011;62056;52.130;5.428;2022-12-05T05:41:18;20.20;;;11.60;;
73747;SDS011;62056;52.130;5.428;2022-12-05T05:43:45;19.65;;;12.02;;
73747;SDS011;62056;52.130;5.428;2022-12-05T05:46:12;25.08;;;11.77;;
73747;SDS011;62056;52.130;5.428;2022-12-05T05:48:40;19.10;;;10.32;;
73747;SDS011;62056;52.130;5.428;2022-12-05T05:51:08;23.83;;;11.90;;
73747;SDS011;62056;52.130;5.428;2022-12-05T05:53:38;23.43;;;11.13;;
73747;SDS011;62056;52.130;5.428;2022-12-05T05:56:07;21.58;;;11.13;;
73747;SDS011;62056;52.130;5.428;2022-12-05T05:58:35;21.35;;;10.77;;
73747;SDS011;62056;52.130;5.428;2022-12-05T06:01:05;19.42;;;10.93;;
73747;SDS011;62056;52.130;5.428;2022-12-05T06:03:33;16.20;;;9.50;;
73747;SDS011;62056;52.130;5.428;2022-12-05T06:06:01;29.27;;;13.80;;
73747;SDS011;62056;52.130;5.428;2022-12-05T06:08:30;21.20;;;10.60;;
73747;SDS011;62056;52.130;5.428;2022-12-05T06:10:58;14.80;;;8.90;;
73747;SDS011;62056;52.130;5.428;2022-12-05T06:13:26;19.70;;;10.70;;
73747;SDS011;62056;52.130;5.428;2022-12-05T06:15:53;19.05;;;10.10;;
73747;SDS011;62056;52.130;5.428;2022-12-05T06:18:19;20.70;;;11.37;;
73747;SDS011;62056;52.130;5.428;2022-12-05T06:20:52;22.77;;;11.00;;
73747;SDS011;62056;52.130;5.428;2022-12-05T06:23:21;21.90;;;11.63;;
73747;SDS011;62056;52.130;5.428;2022-12-05T06:25:48;29.50;;;12.73;;
73747;SDS011;62056;52.130;5.428;2022-12-05T06:28:16;24.48;;;12.43;;
73747;SDS011;62056;52.130;5.428;2022-12-05T06:30:43;27.37;;;12.50;;
73747;SDS011;62056;52.130;5.428;2022-12-05T06:33:10;22.88;;;12.52;;
73747;SDS011;62056;52.130;5.428;2022-12-05T06:35:37;29.45;;;12.88;;
73747;SDS011;62056;52.130;5.428;2022-12-05T06:38:04;26.05;;;12.68;;
73747;SDS011;62056;52.130;5.428;2022-12-05T06:40:31;27.05;;;11.43;;
73747;SDS011;62056;52.130;5.428;2022-12-05T06:42:59;20.53;;;10.60;;
73747;SDS011;62056;52.130;5.428;2022-12-05T06:45:25;23.20;;;11.57;;
73747;SDS011;62056;52.130;5.428;2022-12-05T06:47:52;19.08;;;10.15;;
73747;SDS011;62056;52.130;5.428;2022-12-05T06:50:19;22.13;;;11.88;;
73747;SDS011;62056;52.130;5.428;2022-12-05T06:52:45;25.02;;;11.93;;
73747;SDS011;62056;52.130;5.428;2022-12-05T06:55:12;27.83;;;11.60;;
73747;SDS011;62056;52.130;5.428;2022-12-05T06:57:38;23.88;;;12.15;;
73747;SDS011;62056;52.130;5.428;2022-12-05T07:00:05;21.55;;;11.10;;
73747;SDS011;62056;52.130;5.428;2022-12-05T07:02:51;26.63;;;11.77;;
73747;SDS011;62056;52.130;5.428;2022-12-05T07:05:18;27.40;;;11.75;;
73747;SDS011;62056;52.130;5.428;2022-12-05T07:07:45;24.17;;;11.97;;
73747;SDS011;62056;52.130;5.428;2022-12-05T07:10:12;23.15;;;11.55;;
73747;SDS011;62056;52.130;5.428;2022-12-05T07:12:39;18.60;;;10.25;;
73747;SDS011;62056;52.130;5.428;2022-12-05T07:15:05;21.85;;;10.57;;
73747;SDS011;62056;52.130;5.428;2022-12-05T07:17:36;21.77;;;11.80;;
73747;SDS011;62056;52.130;5.428;2022-12-05T07:20:04;20.73;;;10.17;;
73747;SDS011;62056;52.130;5.428;2022-12-05T07:22:33;22.60;;;11.32;;
73747;SDS011;62056;52.130;5.428;2022-12-05T07:25:02;26.50;;;12.43;;
73747;SDS011;62056;52.130;5.428;2022-12-05T07:27:29;27.15;;;12.70;;
73747;SDS011;62056;52.130;5.428;2022-12-05T07:29:56;29.00;;;11.93;;
73747;SDS011;62056;52.130;5.428;2022-12-05T07:32:23;24.53;;;11.67;;
73747;SDS011;62056;52.130;5.428;2022-12-05T07:34:50;25.90;;;12.23;;
73747;SDS011;62056;52.130;5.428;2022-12-05T07:37:20;21.98;;;11.32;;
73747;SDS011;62056;52.130;5.428;2022-12-05T07:39:47;19.33;;;9.35;;
73747;SDS011;62056;52.130;5.428;2022-12-05T07:42:14;27.15;;;10.52;;
73747;SDS011;62056;52.130;5.428;2022-12-05T07:44:40;24.70;;;11.23;;
73747;SDS011;62056;52.130;5.428;2022-12-05T07:47:07;27.25;;;11.07;;
73747;SDS011;62056;52.130;5.428;2022-12-05T07:49:34;24.85;;;11.77;;
73747;SDS011;62056;52.130;5.428;2022-12-05T07:52:00;21.95;;;10.60;;
73747;SDS011;62056;52.130;5.428;2022-12-05T07:54:27;16.45;;;9.30;;
73747;SDS011;62056;52.130;5.428;2022-12-05T07:56:53;19.83;;;11.40;;
73747;SDS011;62056;52.130;5.428;2022-12-05T07:59:20;21.42;;;11.55;;
73747;SDS011;62056;52.130;5.428;2022-12-05T08:01:47;19.90;;;10.35;;
73747;SDS011;62056;52.130;5.428;2022-12-05T08:04:13;18.63;;;8.70;;
73747;SDS011;62056;52.130;5.428;2022-12-05T08:06:41;23.08;;;11.20;;
73747;SDS011;62056;52.130;5.428;2022-12-05T08:09:08;17.20;;;8.87;;
73747;SDS011;62056;52.130;5.428;2022-12-05T08:11:34;16.13;;;8.98;;
73747;SDS011;62056;52.130;5.428;2022-12-05T08:14:02;19.08;;;9.68;;
73747;SDS011;62056;52.130;5.428;2022-12-05T08:16:30;15.68;;;8.93;;
73747;SDS011;62056;52.130;5.428;2022-12-05T08:18:59;14.18;;;8.38;;
73747;SDS011;62056;52.130;5.428;2022-12-05T08:21:28;20.33;;;10.30;;
73747;SDS011;62056;52.130;5.428;2022-12-05T08:23:55;16.40;;;10.07;;
73747;SDS011;62056;52.130;5.428;2022-12-05T08:26:24;16.52;;;9.98;;
73747;SDS011;62056;52.130;5.428;2022-12-05T08:28:53;12.52;;;8.27;;
73747;SDS011;62056;52.130;5.428;2022-12-05T08:31:22;12.60;;;8.13;;
73747;SDS011;62056;52.130;5.428;2022-12-05T08:33:50;15.03;;;8.77;;
73747;SDS011;62056;52.130;5.428;2022-12-05T08:36:24;14.18;;;9.75;;
73747;SDS011;62056;52.130;5.428;2022-12-05T08:38:58;17.33;;;9.77;;
73747;SDS011;62056;52.130;5.428;2022-12-05T08:41:27;11.93;;;8.40;;
73747;SDS011;62056;52.130;5.428;2022-12-05T08:43:56;20.30;;;9.57;;
73747;SDS011;62056;52.130;5.428;2022-12-05T08:46:24;13.73;;;7.40;;
73747;SDS011;62056;52.130;5.428;2022-12-05T08:48:51;14.93;;;8.75;;
73747;SDS011;62056;52.130;5.428;2022-12-05T08:51:18;11.43;;;7.65;;
73747;SDS011;62056;52.130;5.428;2022-12-05T08:53:44;15.85;;;9.23;;
73747;SDS011;62056;52.130;5.428;2022-12-05T08:56:11;15.00;;;9.02;;
73747;SDS011;62056;52.130;5.428;2022-12-05T08:58:38;10.73;;;7.63;;
73747;SDS011;62056;52.130;5.428;2022-12-05T09:01:07;13.77;;;7.90;;
73747;SDS011;62056;52.130;5.428;2022-12-05T09:03:35;12.77;;;8.00;;
73747;SDS011;62056;52.130;5.428;2022-12-05T09:06:12;13.00;;;8.68;;
73747;SDS011;62056;52.130;5.428;2022-12-05T09:08:44;11.15;;;8.38;;
73747;SDS011;62056;52.130;5.428;2022-12-05T09:11:15;14.63;;;8.93;;
73747;SDS011;62056;52.130;5.428;2022-12-05T09:13:44;11.43;;;8.45;;
73747;SDS011;62056;52.130;5.428;2022-12-05T09:16:14;13.73;;;7.43;;
73747;SDS011;62056;52.130;5.428;2022-12-05T09:18:44;11.98;;;7.85;;
73747;SDS011;62056;52.130;5.428;2022-12-05T09:21:12;10.23;;;7.15;;
73747;SDS011;62056;52.130;5.428;2022-12-05T09:23:42;11.07;;;6.83;;
73747;SDS011;62056;52.130;5.428;2022-12-05T09:26:11;9.88;;;6.95;;
73747;SDS011;62056;52.130;5.428;2022-12-05T09:28:39;11.18;;;7.45;;
73747;SDS011;62056;52.130;5.428;2022-12-05T09:31:08;14.18;;;7.10;;
73747;SDS011;62056;52.130;5.428;2022-12-05T09:33:40;5.90;;;4.80;;
73747;SDS011;62056;52.130;5.428;2022-12-05T09:36:10;8.07;;;6.20;;
73747;SDS011;62056;52.130;5.428;2022-12-05T09:38:38;6.00;;;5.40;;
73747;SDS011;62056;52.130;5.428;2022-12-05T09:44:39;6.55;;;5.35;;
73747;SDS011;62056;52.130;5.428;2022-12-05T09:52:40;6.20;;;5.57;;
73747;SDS011;62056;52.130;5.428;2022-12-05T09:55:15;6.30;;;5.65;;
73747;SDS011;62056;52.130;5.428;2022-12-05T09:57:47;5.57;;;4.03;;
73747;SDS011;62056;52.130;5.428;2022-12-05T10:00:17;5.90;;;4.95;;
73747;SDS011;62056;52.130;5.428;2022-12-05T10:02:57;8.07;;;5.27;;
73747;SDS011;62056;52.130;5.428;2022-12-05T10:05:39;7.90;;;5.50;;
73747;SDS011;62056;52.130;5.428;2022-12-05T10:08:17;6.50;;;4.97;;
73747;SDS011;62056;52.130;5.428;2022-12-05T10:13:29;4.95;;;4.45;;
73747;SDS011;62056;52.130;5.428;2022-12-05T10:16:06;6.77;;;5.13;;
73747;SDS011;62056;52.130;5.428;2022-12-05T10:21:30;6.60;;;5.68;;
73747;SDS011;62056;52.130;5.428;2022-12-05T10:24:03;6.30;;;4.82;;
73747;SDS011;62056;52.130;5.428;2022-12-05T10:26:42;5.53;;;5.03;;
73747;SDS011;62056;52.130;5.428;2022-12-05T10:29:21;4.77;;;4.37;;
73747;SDS011;62056;52.130;5.428;2022-12-05T10:31:55;4.90;;;4.40;;
73747;SDS011;62056;52.130;5.428;2022-12-05T10:34:30;6.47;;;5.13;;
73747;SDS011;62056;52.130;5.428;2022-12-05T10:37:10;7.10;;;4.47;;
73747;SDS011;62056;52.130;5.428;2022-12-05T10:39:41;6.25;;;3.53;;
73747;SDS011;62056;52.130;5.428;2022-12-05T10:42:11;4.67;;;2.70;;
73747;SDS011;62056;52.130;5.428;2022-12-05T10:44:42;3.47;;;3.17;;
73747;SDS011;62056;52.130;5.428;2022-12-05T10:47:09;4.00;;;3.60;;
73747;SDS011;62056;52.130;5.428;2022-12-05T10:49:37;4.40;;;3.55;;
73747;SDS011;62056;52.130;5.428;2022-12-05T10:52:04;3.60;;;3.28;;
73747;SDS011;62056;52.130;5.428;2022-12-05T10:54:31;7.87;;;2.60;;
73747;SDS011;62056;52.130;5.428;2022-12-05T10:57:19;3.47;;;2.30;;
73747;SDS011;62056;52.130;5.428;2022-12-05T10:59:53;2.92;;;1.83;;
73747;SDS011;62056;52.130;5.428;2022-12-05T11:02:30;3.03;;;2.20;;
73747;SDS011;62056;52.130;5.428;2022-12-05T11:04:58;3.25;;;1.67;;
73747;SDS011;62056;52.130;5.428;2022-12-05T11:12:52;4.03;;;1.83;;
73747;SDS011;62056;52.130;5.428;2022-12-05T11:15:23;2.20;;;1.58;;
73747;SDS011;62056;52.130;5.428;2022-12-05T11:17:54;4.07;;;2.03;;
73747;SDS011;62056;52.130;5.428;2022-12-05T11:22:50;2.80;;;1.40;;
73747;SDS011;62056;52.130;5.428;2022-12-05T11:25:29;1.92;;;1.73;;
73747;SDS011;62056;52.130;5.428;2022-12-05T11:28:21;2.50;;;1.70;;
73747;SDS011;62056;52.130;5.428;2022-12-05T11:33:34;4.03;;;1.70;;
73747;SDS011;62056;52.130;5.428;2022-12-05T11:36:12;3.30;;;2.15;;
73747;SDS011;62056;52.130;5.428;2022-12-05T11:38:44;3.03;;;2.00;;
73747;SDS011;62056;52.130;5.428;2022-12-05T11:46:59;2.80;;;1.53;;
73747;SDS011;62056;52.130;5.428;2022-12-05T11:49:43;4.13;;;1.90;;
73747;SDS011;62056;52.130;5.428;2022-12-05T11:55:24;2.42;;;1.70;;
73747;SDS011;62056;52.130;5.428;2022-12-05T11:58:06;6.93;;;1.60;;
73747;SDS011;62056;52.130;5.428;2022-12-05T12:01:03;3.03;;;1.40;;
73747;SDS011;62056;52.130;5.428;2022-12-05T12:06:29;2.35;;;1.85;;
73747;SDS011;62056;52.130;5.428;2022-12-05T12:11:30;4.78;;;2.42;;
73747;SDS011;62056;52.130;5.428;2022-12-05T12:14:12;2.23;;;1.63;;
73747;SDS011;62056;52.130;5.428;2022-12-05T12:33:10;4.57;;;1.95;;
73747;SDS011;62056;52.130;5.428;2022-12-05T12:38:34;3.78;;;1.80;;
73747;SDS011;62056;52.130;5.428;2022-12-05T12:49:20;1.67;;;1.45;;
73747;SDS011;62056;52.130;5.428;2022-12-05T12:52:01;3.00;;;1.80;;
73747;SDS011;62056;52.130;5.428;2022-12-05T12:54:40;2.63;;;1.13;;
73747;SDS011;62056;52.130;5.428;2022-12-05T13:03:15;2.72;;;1.63;;
73747;SDS011;62056;52.130;5.428;2022-12-05T13:08:21;2.17;;;1.50;;
73747;SDS011;62056;52.130;5.428;2022-12-05T13:10:54;5.93;;;1.65;;
73747;SDS011;62056;52.130;5.428;2022-12-05T13:13:29;3.17;;;1.60;;
73747;SDS011;62056;52.130;5.428;2022-12-05T13:16:03;1.85;;;1.15;;
73747;SDS011;62056;52.130;5.428;2022-12-05T13:18:33;1.88;;;1.00;;
73747;SDS011;62056;52.130;5.428;2022-12-05T13:21:02;2.00;;;1.63;;
73747;SDS011;62056;52.130;5.428;2022-12-05T13:23:39;1.83;;;1.20;;
73747;SDS011;62056;52.130;5.428;2022-12-05T13:26:11;1.98;;;1.40;;
73747;SDS011;62056;52.130;5.428;2022-12-05T13:28:45;2.70;;;1.40;;
73747;SDS011;62056;52.130;5.428;2022-12-05T13:31:16;2.08;;;1.70;;
73747;SDS011;62056;52.130;5.428;2022-12-05T13:33:45;3.87;;;1.30;;
73747;SDS011;62056;52.130;5.428;2022-12-05T13:36:14;2.92;;;2.33;;
73747;SDS011;62056;52.130;5.428;2022-12-05T13:39:03;4.82;;;2.08;;
73747;SDS011;62056;52.130;5.428;2022-12-05T13:41:51;3.83;;;1.88;;
73747;SDS011;62056;52.130;5.428;2022-12-05T13:44:43;2.35;;;1.85;;
73747;SDS011;62056;52.130;5.428;2022-12-05T13:52:48;3.13;;;1.73;;
73747;SDS011;62056;52.130;5.428;2022-12-05T13:55:21;2.38;;;1.35;;
73747;SDS011;62056;52.130;5.428;2022-12-05T13:58:02;2.75;;;1.42;;
73747;SDS011;62056;52.130;5.428;2022-12-05T14:00:50;2.63;;;1.73;;
73747;SDS011;62056;52.130;5.428;2022-12-05T14:06:03;2.88;;;2.15;;
73747;SDS011;62056;52.130;5.428;2022-12-05T14:11:07;4.90;;;1.63;;
73747;SDS011;62056;52.130;5.428;2022-12-05T14:13:37;1.60;;;1.03;;
73747;SDS011;62056;52.130;5.428;2022-12-05T14:21:56;3.15;;;1.33;;
73747;SDS011;62056;52.130;5.428;2022-12-05T14:27:32;4.00;;;2.33;;
73747;SDS011;62056;52.130;5.428;2022-12-05T14:30:23;3.08;;;1.70;;
73747;SDS011;62056;52.130;5.428;2022-12-05T14:32:58;2.45;;;1.80;;
73747;SDS011;62056;52.130;5.428;2022-12-05T14:38:05;2.58;;;1.85;;
73747;SDS011;62056;52.130;5.428;2022-12-05T14:40:37;2.43;;;1.67;;
73747;SDS011;62056;52.130;5.428;2022-12-05T14:50:45;2.25;;;1.73;;
73747;SDS011;62056;52.130;5.428;2022-12-05T14:55:41;3.05;;;1.63;;
73747;SDS011;62056;52.130;5.428;2022-12-05T14:58:21;1.88;;;1.30;;
73747;SDS011;62056;52.130;5.428;2022-12-05T15:00:54;3.13;;;2.20;;
73747;SDS011;62056;52.130;5.428;2022-12-05T15:03:31;2.70;;;2.08;;
73747;SDS011;62056;52.130;5.428;2022-12-05T15:06:05;3.00;;;1.70;;
73747;SDS011;62056;52.130;5.428;2022-12-05T15:08:45;3.35;;;2.17;;
73747;SDS011;62056;52.130;5.428;2022-12-05T15:11:16;3.40;;;2.00;;
73747;SDS011;62056;52.130;5.428;2022-12-05T15:14:00;2.15;;;1.42;;
73747;SDS011;62056;52.130;5.428;2022-12-05T15:16:37;3.55;;;2.42;;
73747;SDS011;62056;52.130;5.428;2022-12-05T15:19:13;6.57;;;2.60;;
73747;SDS011;62056;52.130;5.428;2022-12-05T15:21:51;3.85;;;2.00;;
73747;SDS011;62056;52.130;5.428;2022-12-05T15:24:21;2.95;;;1.83;;
73747;SDS011;62056;52.130;5.428;2022-12-05T15:26:49;2.08;;;1.60;;
73747;SDS011;62056;52.130;5.428;2022-12-05T15:34:20;2.63;;;1.83;;
73747;SDS011;62056;52.130;5.428;2022-12-05T15:36:51;2.95;;;2.05;;
73747;SDS011;62056;52.130;5.428;2022-12-05T15:39:24;2.70;;;1.70;;
73747;SDS011;62056;52.130;5.428;2022-12-05T15:41:52;4.07;;;1.77;;
73747;SDS011;62056;52.130;5.428;2022-12-05T15:44:20;1.77;;;1.03;;
73747;SDS011;62056;52.130;5.428;2022-12-05T15:46:54;4.00;;;2.15;;
73747;SDS011;62056;52.130;5.428;2022-12-05T15:51:51;5.05;;;2.75;;
73747;SDS011;62056;52.130;5.428;2022-12-05T15:54:27;3.78;;;2.72;;
73747;SDS011;62056;52.130;5.428;2022-12-05T15:57:07;3.87;;;2.53;;
73747;SDS011;62056;52.130;5.428;2022-12-05T15:59:44;4.50;;;2.20;;
73747;SDS011;62056;52.130;5.428;2022-12-05T16:02:20;2.88;;;1.92;;
73747;SDS011;62056;52.130;5.428;2022-12-05T16:04:57;3.10;;;2.28;;
73747;SDS011;62056;52.130;5.428;2022-12-05T16:07:25;2.50;;;2.03;;
73747;SDS011;62056;52.130;5.428;2022-12-05T16:09:55;4.13;;;2.30;;
73747;SDS011;62056;52.130;5.428;2022-12-05T16:12:34;2.33;;;1.52;;
73747;SDS011;62056;52.130;5.428;2022-12-05T16:15:13;3.90;;;2.05;;
73747;SDS011;62056;52.130;5.428;2022-12-05T16:17:47;2.83;;;1.90;;
73747;SDS011;62056;52.130;5.428;2022-12-05T16:20:21;3.17;;;2.28;;
73747;SDS011;62056;52.130;5.428;2022-12-05T16:23:04;2.23;;;1.57;;
73747;SDS011;62056;52.130;5.428;2022-12-05T16:25:48;4.10;;;1.42;;
73747;SDS011;62056;52.130;5.428;2022-12-05T16:28:16;2.28;;;1.40;;
73747;SDS011;62056;52.130;5.428;2022-12-05T16:33:20;1.70;;;1.08;;
73747;SDS011;62056;52.130;5.428;2022-12-05T16:35:47;2.60;;;1.90;;
73747;SDS011;62056;52.130;5.428;2022-12-05T16:43:22;3.50;;;2.30;;
73747;SDS011;62056;52.130;5.428;2022-12-05T16:45:50;2.67;;;1.85;;
73747;SDS011;62056;52.130;5.428;2022-12-05T16:48:28;2.70;;;2.20;;
73747;SDS011;62056;52.130;5.428;2022-12-05T16:53:49;3.15;;;2.78;;
73747;SDS011;62056;52.130;5.428;2022-12-05T16:56:18;2.83;;;1.73;;
73747;SDS011;62056;52.130;5.428;2022-12-05T16:58:48;4.10;;;2.08;;
73747;SDS011;62056;52.130;5.428;2022-12-05T17:01:16;2.63;;;1.70;;
73747;SDS011;62056;52.130;5.428;2022-12-05T17:03:45;3.15;;;2.30;;
73747;SDS011;62056;52.130;5.428;2022-12-05T17:06:12;3.38;;;2.15;;
73747;SDS011;62056;52.130;5.428;2022-12-05T17:08:40;2.40;;;1.88;;
73747;SDS011;62056;52.130;5.428;2022-12-05T17:11:20;3.13;;;2.20;;
73747;SDS011;62056;52.130;5.428;2022-12-05T17:13:50;2.77;;;2.10;;
73747;SDS011;62056;52.130;5.428;2022-12-05T17:16:18;2.17;;;1.48;;
73747;SDS011;62056;52.130;5.428;2022-12-05T17:18:46;3.88;;;1.73;;
73747;SDS011;62056;52.130;5.428;2022-12-05T17:21:13;4.13;;;2.42;;
73747;SDS011;62056;52.130;5.428;2022-12-05T17:23:42;3.47;;;2.00;;
73747;SDS011;62056;52.130;5.428;2022-12-05T17:26:14;4.07;;;2.57;;
73747;SDS011;62056;52.130;5.428;2022-12-05T17:28:43;6.13;;;1.98;;
73747;SDS011;62056;52.130;5.428;2022-12-05T17:31:13;2.95;;;2.35;;
73747;SDS011;62056;52.130;5.428;2022-12-05T17:33:47;3.40;;;2.10;;
73747;SDS011;62056;52.130;5.428;2022-12-05T17:36:15;1.85;;;1.40;;
73747;SDS011;62056;52.130;5.428;2022-12-05T17:38:42;4.77;;;2.00;;
73747;SDS011;62056;52.130;5.428;2022-12-05T17:41:13;2.70;;;1.80;;
73747;SDS011;62056;52.130;5.428;2022-12-05T17:43:42;2.55;;;2.33;;